ENTCENEV

Guest
Details From ENTC - Tromso Langnes
To ENEV - EVENES
Flight Number -
Tags generated
Created
Modified
Stats Distance 86 nm / 160 km
Max Altitude 6,300 ft / 1,920 m
Waypoints 3
Social Downloads 3
Likes 0
Share VATSIM

Download

Looking for another format? Having issues loading an existing format? Contact us
Advertisement - Login to hide

Notes

Basic altitude profile: - Ascent Rate: 2500ft/min - Ascent Speed: 250kts - Cruise Altitude: 35000ft - Cruise Speed: 420kts - Descent Rate: 1500ft/min - Descent Speed: 250kts Options: - Use NATs: yes - Use PACOTS: yes - Use low airways: yes - Use high airways: yes

Route

ENTC ANDOR ENEV

ID Type Via Altitude Latitude Longitude Leg Dist Tot Dist Heading (true) Name
O ENTC APT - 0 ft / 0 m 69.68287˚ 18.91936˚ - 0 nm - Tromso Langnes
ANDOR FIX - 6,300 ft / 1,920 m 68.90722˚ 17.39667˚ 56 nm 56 nm 215° / 214° -
O ENEV APT - 0 ft / 0 m 68.49130˚ 16.67811˚ 29 nm 86 nm 212° / 212° EVENES

Altitude Profile

Advertisement - Login to hide

ENTC

Details ICAO ENTC (TOS)
Name Tromso Langnes
Region Norway
Timezone Europe/Oslo (UTC+1.0)
Stats Elevation 31 ft / 9 m (AMSL)
Location 69.682866° 18.919363°
Runways 1
Magnetic Variation 8.797° E

METAR

ENTC 122020Z VRB02KT CAVOK M06/M08 Q0993 NOSIG RMK WIND 2600FT 18007KT

Decode

TAF

TAF ENTC 1218/1318 VRB05KT CAVOK TEMPO 1312/1318 4000 -SN BKN012

Decode

Departure Runways

ID Width Length Bearing (true) Bearing (mag) Surface Threshold Offset Overrun Length
01 141 ft / 43 m 7,740 ft / 2,359 m 12.19° 3.39° Asphalt 0 ft / 0 m 289 ft / 88 m
19 141 ft / 43 m 7,740 ft / 2,359 m 192.21° 183.41° Asphalt 1,227 ft / 374 m 482 ft / 147 m

ENEV

Details ICAO ENEV (EVE)
Name EVENES
Region Norway
Timezone Europe/Oslo (UTC+1.0)
Stats Elevation 84 ft / 26 m (AMSL)
Location 68.491300° 16.678109°
Runways 1
Magnetic Variation 7.225° E

METAR

ENEV 121950Z 00000KT CAVOK M07/M11 Q0992 RMK WIND 1400FT 11012KT

Decode

TAF

Not found

Destination Runways

ID Width Length Bearing (true) Bearing (mag) Surface Threshold Offset Overrun Length
17 148 ft / 45 m 9,208 ft / 2,807 m 177.60° 170.38° Asphalt 302 ft / 92 m 0 ft / 0 m
35 148 ft / 45 m 9,208 ft / 2,807 m 357.60° 350.38° Asphalt 214 ft / 65 m 925 ft / 282 m

Approach Navaids

Runway Type Ident Frequency Range Bearing (true) Bearing (mag) Slope Elevation
17 Localiser EV 108.90 MHz 18 nm / 33 km 177.60° 170.37° - 84 ft / 26 m (AMSL)
17 Glidescope EV 108.90 MHz 10 nm / 19 km 177.60° 170.37° 3.80° 84 ft / 26 m (AMSL)

Popular Alternatives